createdAt,value
2022-11-10T00:01:00.855Z,33.05
2022-11-10T00:03:30.260Z,32.91
2022-11-10T00:05:55.155Z,34.19
2022-11-10T00:08:21.437Z,36.27
2022-11-10T00:11:02.363Z,36.93
2022-11-10T00:13:36.631Z,38.36
2022-11-10T00:16:20.522Z,38.40
2022-11-10T00:18:49.363Z,39.93
2022-11-10T00:21:16.776Z,40.13
2022-11-10T00:23:42.748Z,40.14
2022-11-10T00:26:17.316Z,40.15
2022-11-10T00:28:45.754Z,39.87
2022-11-10T00:31:15.309Z,39.11
2022-11-10T00:33:41.743Z,40.01
2022-11-10T00:36:07.871Z,38.93
2022-11-10T00:38:33.795Z,38.30
2022-11-10T00:40:59.104Z,39.73
2022-11-10T00:43:26.713Z,41.04
2022-11-10T00:45:56.428Z,39.62
2022-11-10T00:48:21.939Z,39.12
2022-11-10T00:50:47.041Z,41.29
2022-11-10T00:53:13.023Z,40.18
2022-11-10T00:55:40.517Z,38.41
2022-11-10T00:58:05.682Z,39.60
2022-11-10T01:00:31.549Z,37.76
2022-11-10T01:02:59.677Z,37.30
2022-11-10T01:05:25.594Z,36.73
2022-11-10T01:07:52.185Z,36.01
2022-11-10T01:10:17.441Z,33.13
2022-11-10T01:12:42.535Z,35.00
2022-11-10T01:15:09.736Z,35.07
2022-11-10T01:17:35.209Z,36.35
2022-11-10T01:20:02.868Z,36.49
2022-11-10T01:22:28.586Z,36.29
2022-11-10T01:24:53.790Z,36.45
2022-11-10T01:27:18.940Z,34.40
2022-11-10T01:29:44.761Z,36.62
2022-11-10T01:32:09.559Z,34.89
2022-11-10T01:34:34.547Z,34.66
2022-11-10T01:37:02.896Z,36.22
2022-11-10T01:39:28.906Z,36.37
2022-11-10T01:41:53.759Z,37.53
2022-11-10T01:44:25.008Z,36.29
2022-11-10T01:46:50.369Z,36.00
2022-11-10T01:49:18.999Z,36.04
2022-11-10T01:51:54.134Z,36.32
2022-11-10T01:54:29.730Z,38.33
2022-11-10T01:57:03.438Z,38.15
2022-11-10T01:59:33.711Z,39.81
2022-11-10T02:02:13.046Z,38.22
2022-11-10T02:04:40.398Z,40.49
2022-11-10T02:07:06.385Z,38.12
2022-11-10T02:09:34.242Z,38.07
2022-11-10T02:12:01.097Z,38.51
2022-11-10T02:14:30.905Z,39.39
2022-11-10T02:16:56.363Z,37.75
2022-11-10T02:19:25.463Z,39.85
2022-11-10T02:21:55.276Z,38.90
2022-11-10T02:24:21.965Z,38.39
2022-11-10T02:26:54.101Z,39.82
2022-11-10T02:29:20.518Z,40.92
2022-11-10T02:31:46.026Z,39.84
2022-11-10T02:34:10.781Z,37.32
2022-11-10T02:36:37.466Z,37.99
2022-11-10T02:39:05.790Z,37.39
2022-11-10T02:41:33.763Z,38.66
2022-11-10T02:44:07.415Z,37.35
2022-11-10T02:46:32.823Z,38.45
2022-11-10T02:49:01.359Z,37.52
2022-11-10T02:51:26.304Z,37.33
2022-11-10T02:53:51.509Z,37.18
2022-11-10T02:56:22.391Z,37.13
2022-11-10T02:58:47.357Z,37.76
2022-11-10T03:01:12.474Z,37.51
2022-11-10T03:03:39.189Z,38.54
2022-11-10T03:06:04.142Z,38.84
2022-11-10T03:08:29.365Z,39.50
2022-11-10T03:10:58.700Z,39.45
2022-11-10T03:13:35.649Z,41.02
2022-11-10T03:16:13.175Z,42.38
2022-11-10T03:18:37.762Z,43.89
2022-11-10T03:21:02.604Z,42.95
2022-11-10T03:23:28.488Z,41.93
2022-11-10T03:25:53.800Z,43.85
2022-11-10T03:28:20.323Z,42.83
2022-11-10T03:30:49.335Z,41.40
2022-11-10T03:33:16.419Z,41.61
2022-11-10T03:35:41.459Z,42.86
2022-11-10T03:38:07.856Z,43.62
2022-11-10T03:40:56.854Z,43.15
2022-11-10T03:43:18.984Z,43.51
2022-11-10T03:45:49.227Z,43.03
2022-11-10T03:48:14.237Z,44.25
2022-11-10T03:50:39.493Z,45.68
2022-11-10T03:53:06.577Z,47.45
2022-11-10T03:55:32.041Z,47.46
2022-11-10T03:57:59.612Z,47.83
2022-11-10T04:00:25.407Z,47.98
2022-11-10T04:02:53.135Z,45.68
2022-11-10T04:05:30.382Z,48.48
2022-11-10T04:08:14.323Z,47.55
2022-11-10T04:10:40.454Z,43.83
2022-11-10T04:13:18.793Z,42.97
2022-11-10T04:15:46.888Z,44.83
2022-11-10T04:18:24.936Z,43.62
2022-11-10T04:20:50.606Z,45.20
2022-11-10T04:23:29.380Z,46.99
2022-11-10T04:26:06.418Z,48.01
2022-11-10T04:28:33.008Z,48.24
2022-11-10T04:31:00.504Z,47.71
2022-11-10T04:33:28.064Z,50.31
2022-11-10T04:35:54.048Z,47.36
2022-11-10T04:38:19.290Z,49.73
2022-11-10T04:40:46.399Z,50.23
2022-11-10T04:43:15.033Z,46.95
2022-11-10T04:45:39.932Z,46.84
2022-11-10T04:48:04.825Z,48.21
2022-11-10T04:50:33.564Z,47.10
2022-11-10T04:52:58.732Z,49.25
2022-11-10T04:55:25.154Z,49.09
2022-11-10T04:57:51.392Z,50.27
2022-11-10T05:00:18.894Z,46.33
2022-11-10T05:02:44.198Z,50.34
2022-11-10T05:05:11.964Z,45.79
2022-11-10T05:07:39.421Z,46.11
2022-11-10T05:10:04.167Z,47.33
2022-11-10T05:12:30.296Z,46.74
2022-11-10T05:14:56.319Z,50.69
2022-11-10T05:17:24.338Z,45.23
2022-11-10T05:19:51.439Z,45.33
2022-11-10T05:22:17.166Z,44.17
2022-11-10T05:24:44.928Z,45.70
2022-11-10T05:27:11.450Z,51.55
2022-11-10T05:29:36.405Z,54.20
2022-11-10T05:32:01.566Z,52.01
2022-11-10T05:34:27.433Z,50.40
2022-11-10T05:36:53.971Z,49.73
2022-11-10T05:39:18.764Z,45.65
2022-11-10T05:41:48.076Z,44.42
2022-11-10T05:44:13.019Z,44.40
2022-11-10T05:46:37.709Z,45.07
2022-11-10T05:49:03.535Z,44.20
2022-11-10T05:51:28.790Z,46.78
2022-11-10T05:53:53.790Z,46.21
2022-11-10T05:56:19.920Z,47.29
2022-11-10T05:58:47.625Z,45.02
2022-11-10T06:01:12.826Z,45.76
2022-11-10T06:03:39.018Z,46.01
2022-11-10T06:06:03.903Z,45.32
2022-11-10T06:08:35.202Z,43.76
2022-11-10T06:11:09.013Z,44.70
2022-11-10T06:13:34.612Z,45.32
2022-11-10T06:16:03.611Z,43.57
2022-11-10T06:18:29.799Z,44.50
2022-11-10T06:20:55.352Z,44.90
2022-11-10T06:23:21.206Z,44.48
2022-11-10T06:25:47.725Z,45.07
2022-11-10T06:28:15.061Z,43.53
2022-11-10T06:30:42.227Z,45.00
2022-11-10T06:33:10.969Z,43.78
2022-11-10T06:35:36.433Z,45.82
2022-11-10T06:38:03.513Z,44.67
2022-11-10T06:40:29.649Z,45.67
2022-11-10T06:42:57.987Z,44.59
2022-11-10T06:45:28.722Z,44.17
2022-11-10T06:48:10.800Z,47.56
2022-11-10T06:50:39.259Z,46.13
2022-11-10T06:53:05.330Z,49.24
2022-11-10T06:55:30.690Z,47.28
2022-11-10T06:57:55.735Z,48.08
2022-11-10T07:00:24.171Z,48.23
2022-11-10T07:02:49.165Z,48.60
2022-11-10T07:05:19.839Z,47.69
2022-11-10T07:07:48.131Z,46.80
2022-11-10T07:10:13.395Z,47.32
2022-11-10T07:12:38.345Z,45.35
2022-11-10T07:15:04.209Z,43.53
2022-11-10T07:17:28.700Z,45.34
2022-11-10T07:19:53.698Z,45.41
2022-11-10T07:22:20.037Z,47.85
2022-11-10T07:24:47.553Z,46.26
2022-11-10T07:27:12.483Z,45.16
2022-11-10T07:29:48.136Z,44.62
2022-11-10T07:32:12.778Z,43.40
2022-11-10T07:34:44.686Z,44.74
2022-11-10T07:37:10.211Z,49.54
2022-11-10T07:39:35.211Z,52.71
2022-11-10T07:42:03.695Z,52.65
2022-11-10T07:44:28.741Z,60.06
2022-11-10T07:46:53.649Z,71.27
2022-11-10T07:49:19.221Z,63.75
2022-11-10T07:51:46.213Z,58.74
2022-11-10T07:54:11.018Z,49.70
2022-11-10T07:56:42.720Z,51.60
2022-11-10T07:59:14.975Z,50.28
2022-11-10T08:01:40.686Z,51.83
2022-11-10T08:04:05.387Z,55.83
2022-11-10T08:06:34.904Z,50.32
2022-11-10T08:09:04.920Z,50.90
2022-11-10T08:11:32.740Z,51.02
2022-11-10T08:14:00.630Z,49.17
2022-11-10T08:16:42.312Z,54.36
2022-11-10T08:19:20.289Z,52.50
2022-11-10T08:21:46.221Z,48.01
2022-11-10T08:24:17.146Z,44.67
2022-11-10T08:26:45.602Z,44.42
2022-11-10T08:29:10.241Z,43.49
2022-11-10T08:31:38.184Z,48.31
2022-11-10T08:34:07.856Z,45.89
2022-11-10T08:36:32.713Z,43.32
2022-11-10T08:39:00.050Z,44.44
2022-11-10T08:41:44.715Z,45.92
2022-11-10T08:44:19.601Z,46.78
2022-11-10T08:46:53.939Z,48.06
2022-11-10T08:49:23.342Z,52.19
2022-11-10T08:51:48.135Z,47.43
2022-11-10T08:54:14.116Z,46.52
2022-11-10T08:56:39.107Z,45.90
2022-11-10T08:59:03.787Z,52.17
2022-11-10T09:01:29.781Z,51.28
2022-11-10T09:03:54.575Z,49.04
2022-11-10T09:06:31.556Z,49.04
2022-11-10T09:08:56.660Z,47.38
2022-11-10T09:11:21.296Z,47.92
2022-11-10T09:13:45.863Z,46.61
2022-11-10T09:16:12.060Z,47.85
2022-11-10T09:18:36.958Z,45.54
2022-11-10T09:21:05.217Z,47.05
2022-11-10T09:24:08.540Z,49.87
2022-11-10T09:26:36.608Z,48.77
2022-11-10T09:29:01.926Z,50.68
2022-11-10T09:31:26.682Z,49.53
2022-11-10T09:34:08.613Z,46.96
2022-11-10T09:36:36.327Z,47.03
2022-11-10T09:39:01.386Z,47.49
2022-11-10T09:41:30.117Z,50.39
2022-11-10T09:44:14.781Z,48.71
2022-11-10T09:46:49.048Z,47.21
2022-11-10T09:49:39.801Z,60.33
2022-11-10T09:52:12.177Z,64.65
2022-11-10T09:55:02.117Z,60.10
2022-11-10T09:57:30.176Z,51.15
2022-11-10T09:59:59.217Z,50.09
2022-11-10T10:02:40.770Z,51.53
2022-11-10T10:05:51.863Z,52.96
2022-11-10T10:08:35.593Z,50.74
2022-11-10T10:11:26.861Z,45.59
2022-11-10T10:14:27.911Z,49.70
2022-11-10T10:17:07.498Z,46.08
2022-11-10T10:19:58.256Z,45.87
2022-11-10T10:22:54.226Z,46.09
2022-11-10T10:25:32.598Z,55.72
2022-11-10T10:28:15.482Z,49.50
2022-11-10T10:30:40.461Z,53.94
2022-11-10T10:33:20.210Z,56.46
2022-11-10T10:35:54.468Z,54.40
2022-11-10T10:38:29.822Z,52.01
2022-11-10T10:41:00.410Z,39.29
2022-11-10T10:43:27.506Z,40.51
2022-11-10T10:46:10.887Z,41.78
2022-11-10T10:48:47.789Z,43.69
2022-11-10T10:51:33.613Z,43.83
2022-11-10T10:54:00.193Z,39.94
2022-11-10T10:56:35.086Z,43.29
2022-11-10T10:59:09.439Z,40.85
2022-11-10T11:01:37.382Z,40.15
2022-11-10T11:04:30.471Z,40.65
2022-11-10T11:07:02.765Z,39.73
2022-11-10T11:09:33.011Z,36.51
2022-11-10T11:12:09.889Z,36.17
2022-11-10T11:14:40.627Z,35.93
2022-11-10T11:17:23.321Z,35.51
2022-11-10T11:20:02.538Z,34.11
2022-11-10T11:23:02.558Z,32.23
2022-11-10T11:25:42.816Z,32.99
2022-11-10T11:28:31.726Z,34.61
2022-11-10T11:31:18.858Z,35.23
2022-11-10T11:33:56.702Z,35.51
2022-11-10T11:36:45.826Z,34.78
2022-11-10T11:39:36.614Z,32.76
2022-11-10T11:42:49.033Z,30.38
2022-11-10T11:45:27.670Z,30.06
2022-11-10T11:48:29.780Z,31.71
2022-11-10T11:51:36.510Z,30.17
2022-11-10T11:54:36.476Z,25.22
2022-11-10T11:57:24.116Z,25.17
2022-11-10T12:00:09.788Z,22.07
2022-11-10T12:03:07.882Z,21.74
2022-11-10T12:05:49.253Z,21.15
2022-11-10T12:08:31.471Z,21.23
2022-11-10T12:11:16.171Z,19.71
2022-11-10T12:13:55.404Z,19.74
2022-11-10T12:16:29.165Z,18.95
2022-11-10T12:19:19.152Z,20.23
2022-11-10T12:21:57.264Z,18.46
2022-11-10T12:24:54.154Z,18.38
2022-11-10T12:27:36.371Z,19.15
2022-11-10T12:30:12.984Z,18.39
2022-11-10T12:32:57.900Z,18.36
2022-11-10T12:35:29.501Z,19.27
2022-11-10T12:38:06.959Z,15.31
2022-11-10T12:40:42.151Z,14.01
2022-11-10T12:43:26.801Z,15.36
2022-11-10T12:46:00.871Z,16.33
2022-11-10T12:48:46.190Z,15.73
2022-11-10T12:51:25.832Z,17.02
2022-11-10T12:53:56.528Z,15.70
2022-11-10T12:56:32.475Z,14.42
2022-11-10T12:59:35.263Z,13.71
2022-11-10T13:02:14.403Z,13.62
2022-11-10T13:04:50.766Z,13.06
2022-11-10T13:07:17.171Z,11.95
2022-11-10T13:09:47.421Z,13.59
2022-11-10T13:12:32.383Z,13.11
2022-11-10T13:15:00.421Z,12.85
2022-11-10T13:17:58.479Z,16.68
2022-11-10T13:20:56.156Z,21.68
2022-11-10T13:23:36.099Z,21.86
2022-11-10T13:26:05.981Z,34.81
2022-11-10T13:29:23.863Z,49.14
2022-11-10T13:31:59.977Z,47.10
2022-11-10T13:34:35.530Z,43.86
2022-11-10T13:37:02.426Z,26.10
2022-11-10T13:39:53.029Z,17.66
2022-11-10T13:42:32.292Z,14.62
2022-11-10T13:45:21.732Z,14.92
2022-11-10T13:48:10.632Z,20.68
2022-11-10T13:50:57.301Z,22.29
2022-11-10T13:53:46.366Z,17.34
2022-11-10T13:56:41.624Z,23.24
2022-11-10T13:59:27.973Z,30.21
2022-11-10T14:01:53.030Z,17.37
2022-11-10T14:04:49.165Z,14.87
2022-11-10T14:07:22.864Z,12.78
2022-11-10T14:09:53.646Z,10.32
2022-11-10T14:12:34.369Z,11.65
2022-11-10T14:15:08.175Z,11.60
2022-11-10T14:17:42.952Z,10.66
2022-11-10T14:20:37.969Z,12.51
2022-11-10T14:23:32.233Z,12.10
2022-11-10T14:26:05.612Z,15.88
2022-11-10T14:28:33.836Z,21.84
2022-11-10T14:31:01.891Z,23.10
2022-11-10T14:33:29.812Z,22.81
2022-11-10T14:36:10.423Z,21.54
2022-11-10T14:38:37.478Z,46.09
2022-11-10T14:41:07.498Z,38.00
2022-11-10T14:43:35.833Z,37.53
2022-11-10T14:46:05.176Z,39.57
2022-11-10T14:48:36.773Z,42.43
2022-11-10T14:51:16.270Z,54.45
2022-11-10T14:53:51.925Z,43.13
2022-11-10T14:56:27.051Z,40.03
2022-11-10T14:58:54.466Z,40.98
2022-11-10T15:01:33.960Z,44.69
2022-11-10T15:04:00.438Z,39.85
2022-11-10T15:06:30.139Z,38.46
2022-11-10T15:08:55.097Z,43.12
2022-11-10T15:11:42.781Z,43.93
2022-11-10T15:14:39.837Z,44.13
2022-11-10T15:17:05.037Z,45.13
2022-11-10T15:19:35.260Z,48.63
2022-11-10T15:22:16.288Z,48.76
2022-11-10T15:24:45.746Z,42.70
2022-11-10T15:27:25.703Z,42.30
2022-11-10T15:29:51.308Z,44.36
2022-11-10T15:32:23.114Z,45.17
2022-11-10T15:34:49.914Z,46.06
2022-11-10T15:37:31.676Z,45.92
2022-11-10T15:40:33.313Z,44.71
2022-11-10T15:43:12.492Z,48.89
2022-11-10T15:45:37.072Z,48.30
2022-11-10T15:48:03.107Z,48.44
2022-11-10T15:50:28.008Z,53.64
2022-11-10T15:52:56.081Z,56.30
2022-11-10T15:55:26.564Z,61.69
2022-11-10T15:57:51.289Z,67.44
2022-11-10T16:00:19.485Z,56.27
2022-11-10T16:02:46.537Z,54.23
2022-11-10T16:05:16.085Z,64.04
2022-11-10T16:07:44.872Z,68.52
2022-11-10T16:10:12.795Z,70.83
2022-11-10T16:12:39.330Z,71.39
2022-11-10T16:15:06.591Z,71.35
2022-11-10T16:17:31.688Z,62.87
2022-11-10T16:19:56.844Z,57.52
2022-11-10T16:22:22.871Z,54.64
2022-11-10T16:24:47.962Z,54.45
2022-11-10T16:27:18.799Z,47.07
2022-11-10T16:29:46.304Z,47.85
2022-11-10T16:32:13.979Z,47.55
2022-11-10T16:34:39.036Z,48.20
2022-11-10T16:37:05.263Z,46.74
2022-11-10T16:39:30.666Z,49.00
2022-11-10T16:41:55.720Z,48.84
2022-11-10T16:44:25.478Z,48.83
2022-11-10T16:46:57.652Z,48.97
2022-11-10T16:49:34.472Z,49.90
2022-11-10T16:51:59.532Z,52.13
2022-11-10T16:54:25.087Z,55.30
2022-11-10T16:56:50.192Z,59.01
2022-11-10T16:59:15.089Z,61.59
2022-11-10T17:01:47.515Z,60.85
2022-11-10T17:04:16.878Z,62.49
2022-11-10T17:06:43.724Z,66.14
2022-11-10T17:09:18.760Z,67.56
2022-11-10T17:11:44.669Z,67.11
2022-11-10T17:14:10.126Z,72.14
2022-11-10T17:16:39.220Z,83.25
2022-11-10T17:19:10.981Z,79.98
2022-11-10T17:21:39.937Z,79.50
2022-11-10T17:24:08.084Z,76.89
2022-11-10T17:26:34.538Z,75.21
2022-11-10T17:28:59.444Z,73.22
2022-11-10T17:31:25.047Z,66.91
2022-11-10T17:33:49.785Z,73.63
2022-11-10T17:36:24.322Z,71.06
2022-11-10T17:38:50.294Z,74.20
2022-11-10T17:41:20.920Z,76.10
2022-11-10T17:43:46.310Z,75.64
2022-11-10T17:46:12.516Z,81.58
2022-11-10T17:48:48.031Z,86.78
2022-11-10T17:51:26.067Z,87.06
2022-11-10T17:53:52.192Z,84.03
2022-11-10T17:56:18.468Z,84.32
2022-11-10T17:58:43.628Z,90.38
2022-11-10T18:01:17.745Z,93.18
2022-11-10T18:03:46.247Z,98.25
2022-11-10T18:06:11.855Z,100.86
2022-11-10T18:08:39.744Z,103.75
2022-11-10T18:11:05.476Z,88.59
2022-11-10T18:13:30.267Z,77.42
2022-11-10T18:16:01.717Z,76.89
2022-11-10T18:18:27.695Z,67.78
2022-11-10T18:20:54.331Z,64.01
2022-11-10T18:23:19.443Z,60.64
2022-11-10T18:25:47.556Z,61.74
2022-11-10T18:28:17.331Z,60.24
2022-11-10T18:30:42.881Z,60.40
2022-11-10T18:33:10.390Z,58.97
2022-11-10T18:35:38.720Z,57.56
2022-11-10T18:38:03.364Z,57.76
2022-11-10T18:40:28.824Z,58.29
2022-11-10T18:43:07.140Z,56.55
2022-11-10T18:45:33.174Z,57.00
2022-11-10T18:48:03.239Z,56.66
2022-11-10T18:50:27.920Z,58.50
2022-11-10T18:52:53.635Z,55.40
2022-11-10T18:55:20.383Z,50.33
2022-11-10T18:57:45.217Z,45.46
2022-11-10T19:00:19.094Z,47.20
2022-11-10T19:02:46.386Z,41.55
2022-11-10T19:05:12.977Z,39.17
2022-11-10T19:07:37.623Z,36.90
2022-11-10T19:10:02.912Z,33.77
2022-11-10T19:12:28.841Z,34.19
2022-11-10T19:14:54.249Z,32.44
2022-11-10T19:17:22.225Z,33.91
2022-11-10T19:19:52.047Z,35.26
2022-11-10T19:22:20.573Z,36.73
2022-11-10T19:25:06.612Z,34.00
2022-11-10T19:27:31.768Z,34.25
2022-11-10T19:29:56.680Z,34.54
2022-11-10T19:32:25.160Z,31.48
2022-11-10T19:34:50.460Z,30.89
2022-11-10T19:37:21.340Z,32.27
2022-11-10T19:39:46.299Z,29.89
2022-11-10T19:42:12.025Z,28.72
2022-11-10T19:44:37.526Z,29.47
2022-11-10T19:47:02.772Z,28.56
2022-11-10T19:49:31.008Z,29.42
2022-11-10T19:51:55.906Z,27.95
2022-11-10T19:54:20.543Z,27.91
2022-11-10T19:56:46.352Z,28.83
2022-11-10T19:59:13.166Z,29.49
2022-11-10T20:01:38.266Z,32.53
2022-11-10T20:04:06.219Z,40.05
2022-11-10T20:06:34.991Z,50.11
2022-11-10T20:09:00.841Z,53.25
2022-11-10T20:11:29.836Z,67.56
2022-11-10T20:13:59.558Z,75.86
2022-11-10T20:16:25.582Z,95.50
2022-11-10T20:18:51.298Z,113.96
2022-11-10T20:21:21.253Z,113.96
2022-11-10T20:23:48.904Z,105.73
2022-11-10T20:26:17.705Z,96.52
2022-11-10T20:28:44.118Z,88.27
2022-11-10T20:31:13.004Z,80.56
2022-11-10T20:33:41.579Z,77.58
2022-11-10T20:36:20.780Z,70.18
2022-11-10T20:38:54.230Z,73.89
2022-11-10T20:41:23.013Z,75.20
2022-11-10T20:43:49.389Z,81.47
2022-11-10T20:49:12.654Z,81.89
2022-11-10T20:51:40.291Z,82.36
2022-11-10T20:54:07.494Z,83.88
2022-11-10T20:56:33.011Z,81.95
2022-11-10T20:58:57.224Z,83.53
2022-11-10T21:01:36.665Z,86.17
2022-11-10T21:04:11.138Z,85.44
2022-11-10T21:06:35.394Z,82.30
2022-11-10T21:08:59.868Z,79.68
2022-11-10T21:11:54.549Z,80.52
2022-11-10T21:14:18.923Z,80.34
2022-11-10T21:16:44.379Z,78.16
2022-11-10T21:19:13.994Z,77.94
2022-11-10T21:21:38.549Z,78.58
2022-11-10T21:24:11.047Z,77.12
2022-11-10T21:26:43.185Z,76.04
2022-11-10T21:29:09.731Z,73.32
2022-11-10T21:31:38.851Z,71.03
2022-11-10T21:34:03.956Z,67.62
2022-11-10T21:36:30.274Z,70.28
2022-11-10T21:38:54.458Z,70.99
2022-11-10T21:41:18.904Z,70.94
2022-11-10T21:43:46.757Z,69.66
2022-11-10T21:46:11.738Z,67.04
2022-11-10T21:48:35.981Z,64.18
2022-11-10T21:51:04.102Z,67.73
2022-11-10T21:53:36.343Z,64.64
2022-11-10T21:56:02.770Z,66.80
2022-11-10T21:58:29.773Z,60.69
2022-11-10T22:01:04.835Z,55.72
2022-11-10T22:03:31.458Z,51.67
2022-11-10T22:05:55.650Z,49.87
2022-11-10T22:08:22.321Z,47.67
2022-11-10T22:11:00.099Z,48.41
2022-11-10T22:13:37.137Z,46.30
2022-11-10T22:16:24.368Z,47.45
2022-11-10T22:18:49.852Z,44.78
2022-11-10T22:21:16.088Z,44.05
2022-11-10T22:23:56.516Z,43.60
2022-11-10T22:26:22.808Z,44.06
2022-11-10T22:28:48.540Z,43.38
2022-11-10T22:31:16.144Z,44.26
2022-11-10T22:33:44.548Z,43.60
2022-11-10T22:36:15.448Z,40.95
2022-11-10T22:38:45.197Z,40.20
2022-11-10T22:41:29.048Z,39.12
2022-11-10T22:44:08.171Z,37.46
2022-11-10T22:46:39.633Z,36.09
2022-11-10T22:49:04.651Z,36.30
2022-11-10T22:51:32.729Z,38.30
2022-11-10T22:53:57.794Z,36.48
2022-11-10T22:56:23.745Z,37.42
2022-11-10T22:58:48.543Z,36.21
2022-11-10T23:01:15.711Z,38.19
2022-11-10T23:03:44.246Z,39.18
2022-11-10T23:06:09.565Z,41.40
2022-11-10T23:08:35.994Z,40.23
2022-11-10T23:11:02.585Z,40.37
2022-11-10T23:13:26.667Z,42.68
2022-11-10T23:15:54.449Z,45.65
2022-11-10T23:18:19.109Z,47.52
2022-11-10T23:20:46.429Z,48.07
2022-11-10T23:23:11.793Z,48.64
2022-11-10T23:25:38.482Z,51.27
2022-11-10T23:28:02.859Z,53.60
2022-11-10T23:30:28.149Z,55.99
2022-11-10T23:32:52.796Z,57.64
2022-11-10T23:35:17.107Z,58.49
2022-11-10T23:37:45.011Z,58.79
2022-11-10T23:40:12.294Z,55.06
2022-11-10T23:42:36.549Z,53.62
2022-11-10T23:45:02.000Z,52.27
2022-11-10T23:47:28.788Z,50.81
2022-11-10T23:49:52.959Z,48.64
2022-11-10T23:52:19.516Z,45.35
2022-11-10T23:54:46.677Z,42.30
2022-11-10T23:57:11.408Z,40.03
2022-11-10T23:59:36.548Z,38.97
